×

Warning

JFile: :read: Unable to open file: http://aviationweather.gov/adds/tafs/?station_ids=TVSA&std_trans=standard&submit_taf=Get+TAFs

Weather Outlook 2nd December 2019 (12 noon)

A low-level trough is crossing the islands and scattered showers across the Grenadines this morning could continue across St. Vincent and the Grenadines (SVG) this afternoon, possibly increasing tonight. Shower activity is likely to decrease during Tuesday. Thereafter, occasional showers can be expected as low level-moisture/clouds move along with the wind-flow.
Moderate (20 - 35km/h) east south-easterly breeze should increase to fresh (up to 40km/h) by Tuesday, turning east north-easterly late Wednesday as High Pressure builds across the region.

Moderate sea conditions are across our islands, with northerly swells

propagating from a deep Low Pressure System in the Central Atlantic. Northerly swells in open water could range from 1.2 m to 1.5 m on the west and up to 2.5 m on the east of SVG until late Tuesday…Small craft-operators and sea-bathers should exercise caution…originating from the east by Wednesday. Good visibility should continue across SVG, with an occasional thin-film of haze.

Aviation WX

[Source: ADDS]
METAR
TVSA 221300Z 00000KT 9999 SCT022 31/26 Q1013 NOSIG =
TVSA 221100Z 2212/2312 07006KT 9999 SCT020
TAF
SR / SS: 09:53 / 22:00 UTC (Sunrise Sunset 2020-09-22)